Time;durP1;ratioP1;P1;durP2;ratioP2;P2;SDS_P1;SDS_P2;PMS_P1;PMS_P2;Temp;Humidity;BMP_temperature;BMP_pressure;BME280_temperature;BME280_humidity;BME280_pressure;Samples;Min_cycle;Max_cycle;Signal;HPM_P1;HPM_P2
2022/12/13 00:02:40;;;;;;;5.00;2.50;;;-1.10;99.90;;;;;;10353480;28;20204;-79
2022/12/13 00:08:01;;;;;;;6.83;4.00;;;-1.00;99.90;;;;;;10376478;28;20198;-78
2022/12/13 00:13:22;;;;;;;5.03;2.87;;;-1.00;1.00;;;;;;10338969;28;20206;-78
2022/12/13 00:18:46;;;;;;;3.63;2.40;;;-0.90;99.90;;;;;;10393657;28;20225;-79
2022/12/13 00:24:07;;;;;;;5.63;2.53;;;-0.80;1.00;;;;;;10396825;28;20186;-77
2022/12/13 00:29:28;;;;;;;4.00;1.83;;;-0.90;1.00;;;;;;10402988;28;20230;-78
2022/12/13 00:34:50;;;;;;;6.33;2.87;;;-0.90;1.00;;;;;;10398881;28;20195;-77
2022/12/13 00:40:11;;;;;;;5.77;2.50;;;-0.90;73.50;;;;;;10386106;28;20251;-77
2022/12/13 00:45:32;;;;;;;4.30;2.77;;;-0.90;99.90;;;;;;10392037;28;20190;-79
2022/12/13 00:50:54;;;;;;;5.37;2.80;;;-0.80;99.90;;;;;;10360153;28;20225;-78
2022/12/13 00:56:18;;;;;;;6.70;2.50;;;-0.80;1.00;;;;;;10358701;28;20198;-78
2022/12/13 01:01:39;;;;;;;5.97;2.57;;;-0.80;99.90;;;;;;10344887;28;20307;-78
2022/12/13 01:07:00;;;;;;;4.20;2.10;;;-0.80;73.50;;;;;;10401099;28;20195;-77
2022/12/13 01:12:21;;;;;;;7.13;3.00;;;-0.70;1.00;;;;;;10400264;28;20193;-79
2022/12/13 01:17:42;;;;;;;5.37;2.70;;;-0.70;1.00;;;;;;10399694;28;20498;-80
2022/12/13 01:23:05;;;;;;;4.57;2.17;;;-0.70;99.90;;;;;;10370819;28;20224;-78
2022/12/13 01:28:25;;;;;;;6.30;2.60;;;-0.70;99.90;;;;;;10384229;28;20252;-78
2022/12/13 01:33:48;;;;;;;3.83;2.60;;;-0.70;99.90;;;;;;10398891;28;20198;-78
2022/12/13 01:39:11;;;;;;;2.97;2.30;;;-0.60;1.00;;;;;;10395748;28;20226;-79
2022/12/13 01:44:51;;;;;;;3.83;2.20;;;-0.60;78.90;;;;;;10397996;28;20193;-79
2022/12/13 01:50:21;;;;;;;3.57;2.40;;;-0.70;1.00;;;;;;10358357;28;20398;-80
2022/12/13 01:55:46;;;;;;;5.53;2.23;;;-0.70;99.90;;;;;;10356810;28;20343;-79
2022/12/13 02:01:07;;;;;;;6.13;2.50;;;-0.70;1.00;;;;;;10357543;28;20244;-80
2022/12/13 02:06:36;;;;;;;3.23;2.03;;;-0.70;99.90;;;;;;10380397;28;20205;-80
2022/12/13 02:11:57;;;;;;;3.30;2.27;;;-0.80;99.90;;;;;;10383255;28;20220;-80
2022/12/13 02:17:26;;;;;;;3.80;2.20;;;-0.80;99.90;;;;;;10397390;28;20386;-79
2022/12/13 02:23:19;;;;;;;12.17;2.33;;;-0.80;99.90;;;;;;10395956;28;20232;-79
2022/12/13 02:29:15;;;;;;;4.50;1.90;;;-0.80;1.00;;;;;;10381792;28;20236;-79
2022/12/13 02:34:55;;;;;;;5.13;2.10;;;-0.80;1.00;;;;;;10395157;28;20205;-79
2022/12/13 02:40:31;;;;;;;2.33;1.90;;;-0.80;99.90;;;;;;10395861;28;20288;-80
2022/12/13 02:45:57;;;;;;;3.70;2.03;;;-0.80;99.90;;;;;;10377704;28;20198;-80
2022/12/13 02:51:19;;;;;;;5.33;2.13;;;-0.90;99.90;;;;;;10356801;28;20248;-79
2022/12/13 02:56:40;;;;;;;5.57;2.30;;;-0.90;99.90;;;;;;10381229;28;20196;-78
2022/12/13 03:02:08;;;;;;;12.57;2.43;;;-0.90;1.00;;;;;;10395036;28;20229;-79
2022/12/13 03:07:43;;;;;;;4.27;2.63;;;-0.90;99.90;;;;;;10380968;28;20190;-80
2022/12/13 03:13:36;;;;;;;3.20;2.20;;;-0.90;99.90;;;;;;10380640;28;20224;-78
2022/12/13 03:19:00;;;;;;;8.97;2.17;;;-0.90;1.00;;;;;;10394430;28;20290;-80
2022/12/13 03:24:21;;;;;;;2.50;1.87;;;-1.00;36.30;;;;;;10394131;28;20192;-79
2022/12/13 03:29:42;;;;;;;5.73;2.37;;;-1.00;99.90;;;;;;10380462;28;20257;-79
2022/12/13 03:35:03;;;;;;;3.47;2.33;;;-0.90;1.00;;;;;;10393639;28;20408;-79
2022/12/13 03:40:25;;;;;;;3.87;2.00;;;-1.00;1.00;;;;;;10393992;28;20304;-80
2022/12/13 03:45:46;;;;;;;5.03;2.37;;;-1.00;99.90;;;;;;10408073;28;20225;-80
2022/12/13 03:51:07;;;;;;;4.10;2.10;;;-1.10;99.90;;;;;;10357174;28;20205;-81
2022/12/13 03:56:28;;;;;;;2.80;2.10;;;-1.00;99.90;;;;;;10378263;28;20198;-80
2022/12/13 04:01:49;;;;;;;2.90;2.37;;;-1.00;1.00;;;;;;10400813;28;20221;-78
2022/12/13 04:07:11;;;;;;;2.90;1.93;;;-1.10;99.90;;;;;;10401494;28;20220;-78
2022/12/13 04:18:12;;;;;;;3.63;2.03;;;-1.20;10.60;;;;;;10401930;28;20221;-78
2022/12/13 04:23:33;;;;;;;4.47;2.10;;;-1.10;99.90;;;;;;10400679;28;20518;-80
2022/12/13 04:28:54;;;;;;;3.67;1.93;;;-1.10;1.00;;;;;;10400411;28;20245;-78
2022/12/13 04:34:15;;;;;;;2.83;1.90;;;-1.10;1.00;;;;;;10385961;28;20201;-77
2022/12/13 04:39:36;;;;;;;3.00;1.87;;;-1.20;1.00;;;;;;10402665;28;20412;-78
2022/12/13 04:44:58;;;;;;;8.00;2.57;;;-1.20;1.00;;;;;;10399803;28;20194;-78
2022/12/13 04:50:19;;;;;;;5.07;2.57;;;-1.30;99.90;;;;;;10392342;28;20467;-78
2022/12/13 04:55:41;;;;;;;4.87;2.97;;;-1.30;1.00;;;;;;10379099;28;20201;-78
2022/12/13 05:01:05;;;;;;;3.33;2.40;;;-1.30;99.90;;;;;;10399074;28;20222;-78
2022/12/13 05:06:26;;;;;;;4.00;2.30;;;-1.40;1.00;;;;;;10398587;28;20280;-78
2022/12/13 05:11:48;;;;;;;2.90;2.27;;;-1.40;99.90;;;;;;10398828;28;20188;-78
2022/12/13 05:17:09;;;;;;;4.20;2.13;;;-1.40;1.00;;;;;;10384660;28;20201;-77
2022/12/13 05:22:30;;;;;;;4.67;2.50;;;-1.50;1.00;;;;;;10370759;28;20225;-80
2022/12/13 05:27:51;;;;;;;4.73;2.90;;;-1.40;90.10;;;;;;10398780;28;20503;-80
2022/12/13 05:33:12;;;;;;;5.57;2.90;;;-1.40;1.00;;;;;;10398156;28;20517;-80
2022/12/13 05:38:33;;;;;;;4.23;2.57;;;-1.40;92.40;;;;;;10383300;28;20225;-78
2022/12/13 05:43:55;;;;;;;2.77;1.90;;;-1.40;1.00;;;;;;10397514;28;20487;-78
2022/12/13 05:49:16;;;;;;;3.67;2.70;;;-1.40;1.00;;;;;;10382869;28;20279;-78
2022/12/13 05:54:37;;;;;;;5.07;2.87;;;-1.40;99.90;;;;;;10354464;28;20198;-79
2022/12/13 05:59:58;;;;;;;3.23;2.30;;;-1.30;99.90;;;;;;10382942;28;20237;-79
2022/12/13 06:05:19;;;;;;;4.00;2.80;;;-1.40;1.00;;;;;;10397449;28;20197;-80
2022/12/13 06:10:41;;;;;;;2.97;2.60;;;-1.40;9.50;;;;;;10382593;28;20207;-80
2022/12/13 06:16:04;;;;;;;3.43;2.30;;;-1.40;7.00;;;;;;10397239;28;20361;-79
2022/12/13 06:21:25;;;;;;;3.40;2.40;;;-1.30;1.00;;;;;;10381258;28;20232;-79
2022/12/13 06:26:47;;;;;;;5.03;2.23;;;-1.20;99.90;;;;;;10395767;28;20200;-79
2022/12/13 06:32:08;;;;;;;5.23;2.73;;;-1.20;99.90;;;;;;10395732;28;20234;-79
2022/12/13 06:37:29;;;;;;;5.47;2.40;;;-1.10;1.00;;;;;;10380143;28;20201;-79
2022/12/13 06:42:51;;;;;;;3.70;2.63;;;-1.20;1.00;;;;;;10395141;28;20221;-78
2022/12/13 06:48:12;;;;;;;3.83;3.03;;;-1.20;1.00;;;;;;10395386;28;20224;-78
2022/12/13 06:53:38;;;;;;;4.47;2.70;;;-1.30;1.00;;;;;;10369589;28;20228;-78
2022/12/13 06:58:59;;;;;;;4.20;2.50;;;-1.20;99.90;;;;;;10366753;28;20212;-78
2022/12/13 07:04:20;;;;;;;4.13;2.60;;;-1.20;1.00;;;;;;10394787;28;20272;-80
2022/12/13 07:09:41;;;;;;;4.87;2.60;;;-1.30;24.90;;;;;;10394103;28;20220;-78
2022/12/13 07:15:03;;;;;;;7.53;3.30;;;-1.30;99.90;;;;;;10394744;28;20380;-78
2022/12/13 07:20:24;;;;;;;6.20;2.90;;;-1.20;67.30;;;;;;10380162;28;20281;-78
2022/12/13 07:25:52;;;;;;;5.13;2.77;;;-1.20;99.90;;;;;;10379650;28;20206;-78
2022/12/13 07:31:14;;;;;;;8.73;3.17;;;-1.20;1.00;;;;;;10380018;28;20287;-78
2022/12/13 07:36:35;;;;;;;4.87;2.90;;;-1.20;1.00;;;;;;10399321;28;20523;-79
2022/12/13 07:41:56;;;;;;;6.70;2.90;;;-1.20;99.90;;;;;;10401935;28;20251;-79
2022/12/13 07:47:17;;;;;;;6.47;3.10;;;-1.10;99.90;;;;;;10387952;28;20519;-79
2022/12/13 07:52:38;;;;;;;3.47;2.50;;;-1.10;99.90;;;;;;10375028;28;20223;-78
2022/12/13 07:58:05;;;;;;;7.30;4.27;;;-1.10;1.00;;;;;;10363268;28;20194;-79
2022/12/13 08:03:28;;;;;;;7.97;3.43;;;-1.00;99.90;;;;;;10350123;28;20273;-80
2022/12/13 08:08:53;;;;;;;5.00;3.10;;;-0.80;30.90;;;;;;10346549;28;20232;-79
2022/12/13 08:14:14;;;;;;;4.40;3.10;;;-0.80;1.00;;;;;;10361160;28;20221;-78
2022/12/13 08:19:36;;;;;;;4.53;2.83;;;-0.70;1.00;;;;;;10348435;28;20252;-78
2022/12/13 08:24:57;;;;;;;3.10;2.80;;;-0.60;1.00;;;;;;10360910;28;20240;-80
2022/12/13 08:30:18;;;;;;;4.07;3.13;;;-0.60;1.00;;;;;;10367942;28;20288;-78
2022/12/13 08:35:41;;;;;;;6.37;2.83;;;-0.50;1.00;;;;;;10395562;28;20522;-76
2022/12/13 08:41:03;;;;;;;4.47;3.20;;;-0.40;99.90;;;;;;10379837;28;20233;-79
2022/12/13 08:46:24;;;;;;;5.13;3.60;;;-0.30;1.00;;;;;;10368952;28;20198;-80
2022/12/13 08:51:45;;;;;;;4.30;3.03;;;-0.30;1.00;;;;;;10367617;28;20273;-79
2022/12/13 08:57:06;;;;;;;6.03;3.60;;;-0.20;1.00;;;;;;10391128;28;20197;-78
2022/12/13 09:02:28;;;;;;;4.60;3.57;;;0.00;25.70;;;;;;10379622;28;20226;-77
2022/12/13 09:07:53;;;;;;;4.53;2.67;;;0.20;1.00;;;;;;10407062;28;20219;-82
2022/12/13 09:13:14;;;;;;;4.83;3.03;;;0.30;99.90;;;;;;10394164;28;20204;-77
2022/12/13 09:18:35;;;;;;;5.83;3.37;;;0.30;99.90;;;;;;10392843;28;20201;-78
2022/12/13 09:23:57;;;;;;;4.70;3.43;;;0.40;5.00;;;;;;10352107;28;20273;-77
2022/12/13 09:29:18;;;;;;;5.83;3.63;;;0.40;1.00;;;;;;10355433;28;20242;-78
2022/12/13 09:34:39;;;;;;;6.83;3.30;;;0.40;1.00;;;;;;10383662;28;20374;-77
2022/12/13 09:40:00;;;;;;;4.50;3.20;;;0.50;1.00;;;;;;10378305;28;20235;-78
2022/12/13 09:45:22;;;;;;;5.17;2.90;;;0.40;99.90;;;;;;10378269;28;20211;-77
2022/12/13 09:50:44;;;;;;;7.07;3.50;;;0.40;1.00;;;;;;10392657;28;20205;-77
2022/12/13 09:56:17;;;;;;;8.73;4.87;;;0.40;99.90;;;;;;10376789;28;20409;-79
2022/12/13 10:01:38;;;;;;;5.80;3.93;;;0.40;99.90;;;;;;10378076;28;20304;-77
2022/12/13 10:07:00;;;;;;;6.43;3.70;;;0.40;1.00;;;;;;10377889;28;20214;-77
2022/12/13 10:12:22;;;;;;;10.63;4.87;;;0.40;99.90;;;;;;10392214;28;20452;-78
2022/12/13 10:17:47;;;;;;;22.97;8.13;;;0.40;99.90;;;;;;10392088;28;20492;-75
2022/12/13 10:23:10;;;;;;;13.37;5.90;;;0.40;1.00;;;;;;10376445;28;20222;-77
2022/12/13 10:29:04;;;;;;;6.50;2.87;;;0.50;1.00;;;;;;10390713;28;20242;-79
2022/12/13 10:34:34;;;;;;;6.33;2.80;;;0.70;99.90;;;;;;10377212;28;20287;-80
2022/12/13 10:39:57;;;;;;;6.57;3.50;;;0.70;1.00;;;;;;10391225;28;20211;-77
2022/12/13 10:45:20;;;;;;;10.50;3.60;;;0.80;1.00;;;;;;10390464;28;20206;-77
2022/12/13 10:50:42;;;;;;;4.30;2.47;;;1.10;99.90;;;;;;10348585;28;20203;-76
2022/12/13 10:56:03;;;;;;;4.60;2.60;;;1.10;1.00;;;;;;10365687;28;20213;-77
2022/12/13 11:01:28;;;;;;;5.00;2.63;;;1.00;1.00;;;;;;10358565;28;20232;-75
2022/12/13 11:06:49;;;;;;;5.47;3.10;;;1.00;1.00;;;;;;10374876;28;20207;-77
2022/12/13 11:12:14;;;;;;;6.30;2.80;;;0.90;1.00;;;;;;10390290;28;20198;-78
2022/12/13 11:17:44;;;;;;;5.63;3.03;;;1.00;1.00;;;;;;10388808;28;20385;-75
2022/12/13 11:23:22;;;;;;;4.63;2.77;;;0.80;99.90;;;;;;10364781;28;20534;-77
2022/12/13 11:28:55;;;;;;;3.67;2.60;;;0.80;1.00;;;;;;10373307;28;20413;-78
2022/12/13 11:34:38;;;;;;;9.40;3.20;;;0.70;99.90;;;;;;10389545;28;20221;-79
2022/12/13 11:40:02;;;;;;;5.87;3.50;;;0.60;1.00;;;;;;10361436;28;20248;-78
2022/12/13 11:45:43;;;;;;;5.77;3.47;;;0.50;99.90;;;;;;10374278;28;20205;-78
2022/12/13 11:51:08;;;;;;;3.13;2.10;;;0.50;99.90;;;;;;10388426;28;20202;-77
2022/12/13 11:56:40;;;;;;;6.87;2.50;;;0.60;99.90;;;;;;10390192;28;20198;-77
2022/12/13 12:02:25;;;;;;;3.13;2.40;;;0.60;1.00;;;;;;10387944;28;20373;-79
2022/12/13 12:07:56;;;;;;;4.97;2.70;;;0.80;1.00;;;;;;10374155;28;20205;-78
2022/12/13 12:13:53;;;;;;;4.43;2.43;;;0.80;1.00;;;;;;10387559;28;20302;-78
2022/12/13 12:19:17;;;;;;;3.67;2.83;;;0.50;1.00;;;;;;10391050;28;20259;-78
2022/12/13 12:25:16;;;;;;;5.07;2.73;;;0.40;41.80;;;;;;10395071;28;20492;-76
2022/12/13 12:30:43;;;;;;;11.43;5.53;;;0.50;1.00;;;;;;10371751;28;20237;-78
2022/12/13 12:36:33;;;;;;;8.63;4.80;;;0.40;1.00;;;;;;10355146;28;20208;-83
2022/12/13 12:42:12;;;;;;;6.10;2.83;;;0.30;1.00;;;;;;10271114;28;20245;-78
2022/12/13 12:47:45;;;;;;;5.47;2.83;;;0.30;97.00;;;;;;10271589;28;20521;-83
2022/12/13 12:54:09;;;;;;;8.07;3.40;;;0.20;1.00;;;;;;10281627;28;20211;-77
2022/12/13 12:59:46;;;;;;;4.43;2.83;;;0.20;99.90;;;;;;10309728;28;20255;-77
2022/12/13 13:05:18;;;;;;;4.43;2.87;;;0.20;1.00;;;;;;10309527;28;20410;-77
2022/12/13 13:10:42;;;;;;;3.93;2.70;;;0.10;1.00;;;;;;10281221;28;20203;-79
2022/12/13 13:16:04;;;;;;;6.03;3.00;;;0.00;99.90;;;;;;10315293;28;20213;-77
2022/12/13 13:21:32;;;;;;;8.90;3.80;;;-0.20;99.90;;;;;;10388080;28;20234;-76
2022/12/13 13:27:27;;;;;;;7.13;3.20;;;-0.20;1.00;;;;;;10410348;28;20200;-80
2022/12/13 13:32:53;;;;;;;3.77;2.57;;;-0.10;1.00;;;;;;10434184;28;20253;-78
2022/12/13 13:38:27;;;;;;;3.93;2.80;;;-0.30;1.00;;;;;;10433808;28;20219;-77
2022/12/13 13:43:48;;;;;;;3.63;3.03;;;-0.30;1.00;;;;;;10403802;28;20230;-82
2022/12/13 13:49:11;;;;;;;5.83;4.00;;;-0.40;1.00;;;;;;10378316;28;20201;-79
2022/12/13 13:54:35;;;;;;;6.50;3.27;;;-0.40;25.20;;;;;;10394072;28;20209;-80
2022/12/13 14:00:21;;;;;;;8.47;4.03;;;-0.40;1.00;;;;;;10391432;28;20321;-78
2022/12/13 14:05:58;;;;;;;18.70;8.33;;;-0.50;1.00;;;;;;10377323;28;20427;-78
2022/12/13 14:11:56;;;;;;;6.73;3.70;;;-0.60;1.00;;;;;;10377131;28;20277;-80
2022/12/13 14:17:26;;;;;;;5.57;3.43;;;-0.60;1.00;;;;;;10367226;28;20205;-78
2022/12/13 14:23:10;;;;;;;5.70;2.97;;;-0.70;99.90;;;;;;10376985;28;20242;-77
2022/12/13 14:28:55;;;;;;;4.17;2.50;;;-0.80;1.00;;;;;;10362625;28;20217;-79
2022/12/13 14:34:27;;;;;;;4.37;2.87;;;-0.80;99.90;;;;;;10390530;28;20514;-79
2022/12/13 14:39:50;;;;;;;5.87;3.33;;;-0.80;98.70;;;;;;10377116;28;20245;-79
2022/12/13 14:45:23;;;;;;;4.77;3.20;;;-0.80;1.00;;;;;;10375888;28;20275;-78
2022/12/13 14:50:46;;;;;;;6.07;2.80;;;-0.80;99.90;;;;;;10376571;28;20197;-78
2022/12/13 14:56:08;;;;;;;4.67;2.77;;;-0.80;2.00;;;;;;10376281;28;20229;-79
2022/12/13 15:01:37;;;;;;;4.90;3.10;;;-0.90;99.90;;;;;;10376743;28;20417;-81
2022/12/13 15:07:15;;;;;;;5.63;2.80;;;-1.00;99.90;;;;;;10389274;28;20211;-83
2022/12/13 15:12:40;;;;;;;9.30;3.53;;;-1.00;1.00;;;;;;10375661;28;20191;-78
2022/12/13 15:18:22;;;;;;;6.17;3.17;;;-1.00;99.90;;;;;;10405235;28;20282;-80
2022/12/13 15:23:47;;;;;;;18.63;10.30;;;-1.10;1.00;;;;;;10390531;28;20286;-80
2022/12/13 15:29:19;;;;;;;9.30;3.90;;;-1.30;56.70;;;;;;10348548;28;20276;-81
2022/12/13 15:34:42;;;;;;;4.63;3.00;;;-1.20;1.00;;;;;;10348867;28;20205;-79
2022/12/13 15:40:08;;;;;;;6.43;3.40;;;-1.20;1.00;;;;;;10350476;28;20230;-80
2022/12/13 15:45:29;;;;;;;7.63;3.60;;;-1.20;99.90;;;;;;10350552;28;20200;-81
2022/12/13 15:51:17;;;;;;;4.80;2.70;;;-1.20;1.00;;;;;;10349623;28;20457;-81
2022/12/13 15:56:56;;;;;;;3.57;2.60;;;-1.20;99.90;;;;;;10369670;28;20233;-81
2022/12/13 16:02:23;;;;;;;6.23;2.73;;;-1.20;99.90;;;;;;10356372;28;20252;-77
2022/12/13 16:07:49;;;;;;;5.67;3.00;;;-1.20;1.00;;;;;;10390932;28;20565;-80
2022/12/13 16:13:30;;;;;;;6.07;2.87;;;-1.20;1.00;;;;;;10400586;28;20261;-81
2022/12/13 16:18:53;;;;;;;6.70;3.27;;;-1.20;1.00;;;;;;10397640;28;20190;-81
2022/12/13 16:24:14;;;;;;;5.47;3.53;;;-1.30;1.00;;;;;;10401135;28;20599;-81
2022/12/13 16:29:36;;;;;;;4.83;2.80;;;-1.30;1.00;;;;;;10400321;28;20236;-81
2022/12/13 16:34:57;;;;;;;6.73;3.50;;;-1.30;99.90;;;;;;10386588;28;20507;-81
2022/12/13 16:40:27;;;;;;;5.00;3.20;;;-1.40;1.00;;;;;;10401195;28;20209;-80
2022/12/13 16:45:52;;;;;;;5.63;3.50;;;-1.20;30.00;;;;;;10377396;28;20544;-80
2022/12/13 16:51:13;;;;;;;9.73;5.47;;;-1.50;92.10;;;;;;10371418;28;20197;-77
2022/12/13 16:56:34;;;;;;;14.90;7.47;;;-1.60;99.90;;;;;;10385835;28;20207;-80
2022/12/13 17:01:56;;;;;;;18.97;9.00;;;-1.60;17.50;;;;;;10399375;28;20222;-79
2022/12/13 17:07:17;;;;;;;13.33;6.90;;;-1.60;99.90;;;;;;10367561;28;20204;-78
2022/12/13 17:12:38;;;;;;;12.80;7.00;;;-1.50;1.00;;;;;;10401061;28;20193;-78
2022/12/13 17:18:00;;;;;;;17.67;8.10;;;-1.50;6.60;;;;;;10398733;28;20193;-79
2022/12/13 17:23:22;;;;;;;13.33;7.60;;;-1.50;1.00;;;;;;10351577;28;20237;-79
2022/12/13 17:28:43;;;;;;;21.67;10.37;;;-1.50;99.90;;;;;;10358053;28;20258;-79
2022/12/13 17:34:04;;;;;;;11.27;6.50;;;-1.40;99.90;;;;;;10357307;28;20282;-79
2022/12/13 17:39:25;;;;;;;12.50;6.60;;;-1.40;99.90;;;;;;10371360;28;20205;-78
2022/12/13 17:44:46;;;;;;;10.40;6.50;;;-1.50;1.00;;;;;;10373713;28;20197;-79
2022/12/13 17:50:08;;;;;;;18.30;9.37;;;-1.50;1.00;;;;;;10383389;28;20496;-79
2022/12/13 17:55:32;;;;;;;31.43;15.63;;;-1.50;99.90;;;;;;10397368;28;20233;-78
2022/12/13 18:00:54;;;;;;;30.20;15.53;;;-1.60;32.40;;;;;;10398114;28;20401;-79
2022/12/13 18:06:15;;;;;;;36.17;17.57;;;-1.70;1.00;;;;;;10371477;28;20501;-78
2022/12/13 18:11:36;;;;;;;41.40;18.70;;;-1.70;1.00;;;;;;10373034;28;20213;-79
2022/12/13 18:16:57;;;;;;;42.40;19.73;;;-1.80;1.00;;;;;;10376867;28;20214;-79
2022/12/13 18:22:18;;;;;;;26.53;13.33;;;-1.90;1.00;;;;;;10372056;28;20272;-79
2022/12/13 18:27:39;;;;;;;28.93;14.07;;;-1.90;99.90;;;;;;10377173;28;20203;-77
2022/12/13 18:33:00;;;;;;;35.60;16.57;;;-1.90;99.90;;;;;;10357173;28;20603;-80
2022/12/13 18:38:22;;;;;;;45.10;21.07;;;-1.90;99.90;;;;;;10357540;28;20198;-80
2022/12/13 18:43:44;;;;;;;41.33;19.90;;;-1.80;99.90;;;;;;10378710;28;20524;-77
2022/12/13 18:49:06;;;;;;;30.63;15.37;;;-1.90;1.00;;;;;;10381614;28;20213;-78
2022/12/13 18:54:27;;;;;;;32.10;16.07;;;-2.00;1.00;;;;;;10381742;28;20194;-80
2022/12/13 18:59:48;;;;;;;37.27;15.80;;;-2.00;1.00;;;;;;10367377;28;20197;-77
2022/12/13 19:05:09;;;;;;;53.77;22.27;;;-2.00;1.00;;;;;;10380744;28;20198;-79
2022/12/13 19:10:30;;;;;;;44.53;18.70;;;-1.90;1.00;;;;;;10395715;28;20194;-78
2022/12/13 19:15:53;;;;;;;56.57;22.93;;;-1.90;17.20;;;;;;10367072;28;20419;-81
2022/12/13 19:21:17;;;;;;;45.80;20.80;;;-2.00;86.80;;;;;;10394567;28;20232;-80
2022/12/13 19:26:39;;;;;;;38.93;18.53;;;-2.20;99.90;;;;;;10345475;28;20290;-79
2022/12/13 19:32:00;;;;;;;60.23;20.40;;;-2.30;68.10;;;;;;10366329;28;20256;-81
2022/12/13 19:37:21;;;;;;;73.60;27.03;;;-2.50;99.90;;;;;;10384525;28;20185;-78
2022/12/13 19:42:42;;;;;;;47.70;23.23;;;-2.50;99.90;;;;;;10391964;28;20221;-79
2022/12/13 19:48:04;;;;;;;47.13;22.40;;;-2.60;99.90;;;;;;10407639;28;20190;-78
2022/12/13 19:53:25;;;;;;;35.00;17.60;;;-2.60;99.90;;;;;;10421528;28;20247;-79
2022/12/13 19:58:48;;;;;;;40.00;17.10;;;-2.60;99.90;;;;;;10406897;28;20197;-78
2022/12/13 20:04:10;;;;;;;35.80;16.03;;;-2.70;1.00;;;;;;10407180;28;20603;-79
2022/12/13 20:09:32;;;;;;;40.93;19.97;;;-2.80;99.90;;;;;;10407894;28;20202;-79
2022/12/13 20:14:53;;;;;;;51.20;21.07;;;-2.80;1.00;;;;;;10406680;28;20209;-79
2022/12/13 20:20:14;;;;;;;30.37;15.80;;;-2.90;1.00;;;;;;10399557;28;20204;-77
2022/12/13 20:25:35;;;;;;;26.97;13.67;;;-2.80;99.90;;;;;;10393151;28;20204;-78
2022/12/13 20:31:09;;;;;;;23.23;11.83;;;-2.80;99.90;;;;;;10406242;28;20239;-79
2022/12/13 20:36:31;;;;;;;27.13;14.70;;;-2.80;1.00;;;;;;10406244;28;20254;-78
2022/12/13 20:41:52;;;;;;;29.77;16.03;;;-2.80;99.90;;;;;;10401874;28;20225;-78
2022/12/13 20:47:13;;;;;;;23.93;12.57;;;-2.70;99.90;;;;;;10386769;28;20185;-80
2022/12/13 20:52:35;;;;;;;27.27;12.73;;;-2.80;1.00;;;;;;10372715;28;20247;-78
2022/12/13 20:57:56;;;;;;;19.57;10.93;;;-2.90;14.30;;;;;;10385879;28;20192;-78
2022/12/13 21:03:17;;;;;;;20.87;10.93;;;-3.00;75.60;;;;;;10399607;28;20221;-79
2022/12/13 21:08:51;;;;;;;37.17;16.13;;;-3.00;69.20;;;;;;10399280;28;20197;-79
2022/12/13 21:14:12;;;;;;;35.70;17.43;;;-3.00;99.90;;;;;;10399901;28;20514;-79
2022/12/13 21:19:36;;;;;;;31.57;15.00;;;-3.00;99.90;;;;;;10382394;28;20201;-79
2022/12/13 21:25:00;;;;;;;21.77;10.30;;;-2.80;1.00;;;;;;10380137;28;20220;-79
2022/12/13 21:30:21;;;;;;;23.73;11.33;;;-2.80;1.00;;;;;;10398515;28;20225;-79
2022/12/13 21:35:42;;;;;;;25.60;12.03;;;-2.70;1.00;;;;;;10397937;28;20255;-79
2022/12/13 21:41:06;;;;;;;34.07;14.73;;;-2.70;1.00;;;;;;10370473;28;20271;-79
2022/12/13 21:46:28;;;;;;;26.87;12.53;;;-2.70;1.00;;;;;;10370488;28;20197;-79
2022/12/13 21:52:01;;;;;;;24.37;10.03;;;-2.60;1.00;;;;;;10396829;28;20238;-78
2022/12/13 22:03:02;;;;;;;12.57;7.10;;;-2.60;99.90;;;;;;10398375;28;20213;-78
2022/12/13 22:08:23;;;;;;;11.77;7.03;;;-2.60;99.90;;;;;;10382677;28;20205;-78
2022/12/13 22:13:45;;;;;;;12.70;7.00;;;-2.50;1.00;;;;;;10399223;28;20265;-79
2022/12/13 22:19:06;;;;;;;13.87;6.67;;;-2.50;99.90;;;;;;10396885;28;20241;-77
2022/12/13 22:24:27;;;;;;;12.80;7.03;;;-2.50;99.90;;;;;;10361609;28;20224;-79
2022/12/13 22:29:49;;;;;;;12.83;7.17;;;-2.60;99.90;;;;;;10396259;28;20216;-78
2022/12/13 22:35:10;;;;;;;16.60;7.23;;;-2.80;99.90;;;;;;10396954;28;20193;-79
2022/12/13 22:40:31;;;;;;;19.87;9.67;;;-2.90;1.00;;;;;;10396195;28;20193;-78
2022/12/13 22:46:03;;;;;;;19.80;9.33;;;-3.00;1.00;;;;;;10395602;28;20209;-75
2022/12/13 22:51:25;;;;;;;22.77;11.27;;;-3.00;1.00;;;;;;10395419;28;20523;-76
2022/12/13 22:56:49;;;;;;;15.83;10.07;;;-3.00;99.90;;;;;;10395213;28;20208;-77
2022/12/13 23:02:10;;;;;;;19.80;10.57;;;-3.10;1.00;;;;;;10367641;28;20462;-76
2022/12/13 23:07:31;;;;;;;24.47;11.87;;;-3.20;1.00;;;;;;10379802;28;20271;-76
2022/12/13 23:13:01;;;;;;;27.20;12.40;;;-3.30;1.00;;;;;;10395221;28;20196;-78
2022/12/13 23:18:22;;;;;;;26.90;13.97;;;-3.40;67.90;;;;;;10380799;28;20215;-79
2022/12/13 23:23:44;;;;;;;25.73;12.80;;;-3.50;99.90;;;;;;10358350;28;20351;-76
2022/12/13 23:29:07;;;;;;;29.30;13.43;;;-3.50;14.30;;;;;;10353923;28;20256;-79
2022/12/13 23:34:29;;;;;;;29.57;13.30;;;-3.60;99.90;;;;;;10339855;28;20281;-76
2022/12/13 23:39:50;;;;;;;29.30;14.40;;;-3.60;1.00;;;;;;10365033;28;20425;-79
2022/12/13 23:45:11;;;;;;;42.33;15.37;;;-3.70;99.90;;;;;;10394441;28;20217;-78
2022/12/13 23:50:33;;;;;;;37.50;16.30;;;-3.70;11.10;;;;;;10394022;28;20198;-76
2022/12/13 23:55:54;;;;;;;60.80;23.43;;;-3.70;1.00;;;;;;10366555;28;20397;-75
